This is the latest recevied weather packets stored in our database for station/object W2BP-13. If no packets are shown the sender has not sent any weather packets the latest 10 day(s).
| Time | Temp. | Humidity | Pressure | Rain* | Wind** | Luminosity | Snow |
|---|---|---|---|---|---|---|---|
| 1777947933 | 28.33° C | 26% | 1009.1 hPa | 0 mm | - | - | - |
| 1777947033 | 28.33° C | 25% | 1009.1 hPa | 0 mm | - | - | - |
| 1777946132 | 27.22° C | 26% | 1009.1 hPa | 0 mm | - | - | - |
| 1777945233 | 32.78° C | 18% | 1009.3 hPa | 0 mm | - | - | - |
| 1777944333 | 31.67° C | 19% | 1009.2 hPa | 0 mm | - | - | - |
| 1777943433 | 32.78° C | 20% | 1009.3 hPa | 0 mm | - | - | - |
| 1777942533 | 32.78° C | 20% | 1009.5 hPa | 0 mm | - | - | - |
| 1777941633 | 32.78° C | 18% | 1009.5 hPa | 0 mm | - | - | - |
| 1777940732 | 33.33° C | 19% | 1009.6 hPa | 0 mm | - | - | - |
| 1777939832 | 32.78° C | 17% | 1009.5 hPa | 0 mm | - | - | - |
| 1777938932 | 33.33° C | 21% | 1009.6 hPa | 0 mm | - | - | - |
| 1777938032 | 33.33° C | 20% | 1009.6 hPa | 0 mm | - | - | - |
| 1777937132 | 33.33° C | 20% | 1009.9 hPa | 0 mm | - | - | - |
| 1777936232 | 33.33° C | 20% | 1009.6 hPa | 0 mm | - | - | - |
| 1777935333 | 32.78° C | 19% | 1010.1 hPa | 0 mm | - | - | - |
| 1777934433 | 32.78° C | 20% | 1010.3 hPa | 0 mm | - | - | - |
| 1777933532 | 32.78° C | 21% | 1010.3 hPa | 0 mm | - | - | - |
| 1777932632 | 32.78° C | 21% | 1010.7 hPa | 0 mm | - | - | - |
| 1777931732 | 32.78° C | 24% | 1010.7 hPa | 0 mm | - | - | - |
| 1777930833 | 32.22° C | 19% | 1010.9 hPa | 0 mm | - | - | - |
| 1777929933 | 31.67° C | 26% | 1011.5 hPa | 0 mm | - | - | - |
| 1777929033 | 31.67° C | 26% | 1011.5 hPa | 0 mm | - | - | - |
| 1777928133 | 30.56° C | 25% | 1011.7 hPa | 0 mm | - | - | - |
| 1777927233 | 30.56° C | 25% | 1011.9 hPa | 0 mm | - | - | - |
| 1777926332 | 30° C | 30% | 1012 hPa | 0 mm | - | - | - |
* Rain latest hour (hover to see other rain measurements)
** Current wind speed in m/s (hover to see current wind gust speed)